createdAt,value
2018-07-27T00:00:05.656Z,79.00
2018-07-27T00:02:35.030Z,81.70
2018-07-27T00:05:04.739Z,79.70
2018-07-27T00:07:34.207Z,83.90
2018-07-27T00:10:04.108Z,85.20
2018-07-27T00:12:33.354Z,87.90
2018-07-27T00:15:02.726Z,88.60
2018-07-27T00:17:32.012Z,90.60
2018-07-27T00:20:01.378Z,91.70
2018-07-27T00:22:30.583Z,92.10
2018-07-27T00:25:00.185Z,92.20
2018-07-27T00:27:29.510Z,93.70
2018-07-27T00:29:58.975Z,94.30
2018-07-27T00:32:28.505Z,94.50
2018-07-27T00:34:58.024Z,95.30
2018-07-27T00:37:27.426Z,96.30
2018-07-27T00:39:56.784Z,95.90
2018-07-27T00:42:26.307Z,96.40
2018-07-27T00:44:55.611Z,96.60
2018-07-27T00:47:24.827Z,97.70
2018-07-27T00:49:54.156Z,98.50
2018-07-27T00:52:23.721Z,99.20
2018-07-27T00:55:16.172Z,99.90
2018-07-27T00:58:21.421Z,99.90
2018-07-27T01:00:50.712Z,99.90
2018-07-27T01:03:19.995Z,99.90
2018-07-27T01:05:49.359Z,99.90
2018-07-27T01:08:18.620Z,99.90
2018-07-27T01:10:47.901Z,99.90
2018-07-27T01:13:19.397Z,99.90
2018-07-27T01:15:58.614Z,99.90
2018-07-27T01:18:29.766Z,99.90
2018-07-27T01:21:00.748Z,99.90
2018-07-27T01:23:37.545Z,99.90
2018-07-27T01:26:27.930Z,99.90
2018-07-27T01:29:36.245Z,99.90
2018-07-27T01:32:39.801Z,99.90
2018-07-27T01:35:30.485Z,99.90
2018-07-27T02:22:09.547Z,99.90
2018-07-27T02:24:38.820Z,99.90
2018-07-27T02:27:08.517Z,99.90
2018-07-27T02:29:38.088Z,99.90
2018-07-27T02:32:07.461Z,99.90
2018-07-27T02:34:37.328Z,99.90
2018-07-27T02:37:06.740Z,99.90
2018-07-27T02:39:36.169Z,99.90
2018-07-27T02:42:06.009Z,99.90
2018-07-27T02:44:35.264Z,99.90
2018-07-27T02:47:04.708Z,99.90
2018-07-27T02:49:34.129Z,99.90
2018-07-27T02:52:03.597Z,99.90
2018-07-27T02:54:32.980Z,99.90
2018-07-27T02:57:02.620Z,99.90
2018-07-27T02:59:32.030Z,99.90
2018-07-27T03:02:01.460Z,99.90
2018-07-27T03:04:30.986Z,99.90
2018-07-27T03:07:00.667Z,99.90
2018-07-27T03:09:29.900Z,99.90
2018-07-27T03:11:59.761Z,99.90
2018-07-27T03:14:29.475Z,99.90
2018-07-27T03:16:59.069Z,99.90
2018-07-27T03:19:28.498Z,99.90
2018-07-27T03:21:58.081Z,99.90
2018-07-27T03:24:27.544Z,99.90
2018-07-27T03:26:56.777Z,99.90
2018-07-27T03:29:26.441Z,99.90
2018-07-27T03:31:55.905Z,99.90
2018-07-27T03:34:25.239Z,99.90
2018-07-27T03:36:54.531Z,99.90
2018-07-27T03:39:23.812Z,99.90
2018-07-27T03:41:53.121Z,99.90
2018-07-27T03:44:22.708Z,99.90
2018-07-27T03:46:52.052Z,99.90
2018-07-27T03:49:21.397Z,99.90
2018-07-27T03:51:50.944Z,99.90
2018-07-27T03:54:20.276Z,99.90
2018-07-27T03:56:49.596Z,99.90
2018-07-27T03:59:18.879Z,99.90
2018-07-27T04:04:17.188Z,99.90
2018-07-27T04:06:46.612Z,99.90
2018-07-27T04:09:15.945Z,99.90
2018-07-27T04:11:45.567Z,99.90
2018-07-27T04:14:15.082Z,99.90
2018-07-27T04:16:44.513Z,99.90
2018-07-27T04:19:13.757Z,99.90
2018-07-27T04:21:43.059Z,99.90
2018-07-27T04:24:12.660Z,99.90
2018-07-27T04:26:42.044Z,99.90
2018-07-27T04:29:11.439Z,99.90
2018-07-27T04:31:40.789Z,99.90
2018-07-27T04:34:10.179Z,99.90
2018-07-27T04:36:39.491Z,99.90
2018-07-27T04:39:10.080Z,99.90
2018-07-27T04:41:39.738Z,99.90
2018-07-27T04:44:09.633Z,99.90
2018-07-27T04:46:38.917Z,99.90
2018-07-27T04:49:08.440Z,99.90
2018-07-27T04:51:37.820Z,99.90
2018-07-27T04:54:07.309Z,99.90
2018-07-27T04:56:36.742Z,99.90
2018-07-27T04:59:06.100Z,99.90
2018-07-27T05:01:36.595Z,99.80
2018-07-27T05:04:06.139Z,98.50
2018-07-27T05:06:35.562Z,96.80
2018-07-27T05:09:12.582Z,94.70
2018-07-27T05:16:40.401Z,88.10
2018-07-27T05:19:09.844Z,85.70
2018-07-27T05:21:39.156Z,81.20
2018-07-27T05:24:08.868Z,82.40
2018-07-27T05:26:38.388Z,76.60
2018-07-27T05:29:07.954Z,74.80
2018-07-27T05:31:37.302Z,70.20
2018-07-27T05:34:06.680Z,64.80
2018-07-27T05:36:36.032Z,65.20
2018-07-27T05:39:08.619Z,59.90
2018-07-27T05:41:37.914Z,57.60
2018-07-27T05:44:07.581Z,58.40
2018-07-27T05:46:36.901Z,58.40
2018-07-27T05:49:06.272Z,58.10
2018-07-27T05:51:35.539Z,53.20
2018-07-27T05:54:04.808Z,51.60
2018-07-27T05:56:34.428Z,51.00
2018-07-27T05:59:04.288Z,50.50
2018-07-27T06:01:33.607Z,51.00
2018-07-27T06:04:03.144Z,51.40
2018-07-27T06:06:32.494Z,50.80
2018-07-27T06:09:01.828Z,50.70
2018-07-27T06:11:31.149Z,50.70
2018-07-27T06:14:00.506Z,49.60
2018-07-27T06:16:29.920Z,51.70
2018-07-27T06:18:59.267Z,49.00
2018-07-27T06:21:28.876Z,48.50
2018-07-27T06:23:58.607Z,47.50
2018-07-27T06:26:27.887Z,48.10
2018-07-27T06:28:57.288Z,48.90
2018-07-27T06:31:26.679Z,48.90
2018-07-27T06:33:56.175Z,48.40
2018-07-27T06:36:25.606Z,47.70
2018-07-27T06:38:57.761Z,47.80
2018-07-27T06:41:27.096Z,47.50
2018-07-27T06:43:56.336Z,47.70
2018-07-27T06:46:25.531Z,47.50
2018-07-27T06:48:55.200Z,47.20
2018-07-27T06:51:24.535Z,49.30
2018-07-27T06:53:53.858Z,46.90
2018-07-27T06:56:23.237Z,46.80
2018-07-27T06:58:52.504Z,46.60
2018-07-27T07:01:21.736Z,45.70
2018-07-27T07:03:50.983Z,45.80
2018-07-27T07:06:20.424Z,46.80
2018-07-27T07:08:49.672Z,45.80
2018-07-27T07:11:18.924Z,45.30
2018-07-27T07:13:48.112Z,45.70
2018-07-27T07:16:17.340Z,44.10
2018-07-27T07:18:47.051Z,45.10
2018-07-27T07:21:16.274Z,44.20
2018-07-27T07:23:45.804Z,44.10
2018-07-27T07:26:15.363Z,45.60
2018-07-27T07:28:44.545Z,43.60
2018-07-27T07:31:13.924Z,44.80
2018-07-27T07:33:43.237Z,43.90
2018-07-27T07:38:42.093Z,43.30
2018-07-27T07:41:11.360Z,43.50
2018-07-27T07:43:41.142Z,43.30
2018-07-27T07:46:10.386Z,45.20
2018-07-27T07:48:40.128Z,44.80
2018-07-27T07:51:09.668Z,43.10
2018-07-27T07:53:38.911Z,43.40
2018-07-27T07:56:08.131Z,42.80
2018-07-27T07:58:37.398Z,41.60
2018-07-27T08:01:06.970Z,41.80
2018-07-27T08:03:36.300Z,41.50
2018-07-27T08:06:06.079Z,41.60
2018-07-27T08:08:35.305Z,41.30
2018-07-27T08:11:04.629Z,40.90
2018-07-27T08:13:33.979Z,41.90
2018-07-27T08:16:03.204Z,43.40
2018-07-27T08:18:32.443Z,40.10
2018-07-27T08:21:02.094Z,41.00
2018-07-27T08:23:31.609Z,40.70
2018-07-27T08:27:05.233Z,39.40
2018-07-27T08:29:45.868Z,38.40
2018-07-27T08:32:15.443Z,38.60
2018-07-27T08:34:44.803Z,37.70
2018-07-27T08:37:14.240Z,38.50
2018-07-27T08:39:43.870Z,39.90
2018-07-27T08:42:13.175Z,38.50
2018-07-27T08:44:43.120Z,38.50
2018-07-27T08:47:12.443Z,38.80
2018-07-27T08:49:41.736Z,37.40
2018-07-27T08:52:11.312Z,37.10
2018-07-27T08:54:40.629Z,36.80
2018-07-27T08:57:10.231Z,38.70
2018-07-27T08:59:39.841Z,38.20
2018-07-27T09:02:09.341Z,36.20
2018-07-27T09:04:38.724Z,35.70
2018-07-27T09:07:08.154Z,36.90
2018-07-27T09:09:37.646Z,35.40
2018-07-27T09:12:07.303Z,35.70
2018-07-27T09:14:36.544Z,34.80
2018-07-27T09:17:05.821Z,35.50
2018-07-27T09:19:35.268Z,35.10
2018-07-27T09:22:04.504Z,35.10
2018-07-27T09:24:33.907Z,35.40
2018-07-27T09:27:03.095Z,35.60
2018-07-27T09:29:32.452Z,35.90
2018-07-27T09:32:02.235Z,35.80
2018-07-27T09:34:31.533Z,35.40
2018-07-27T09:37:00.862Z,34.90
2018-07-27T09:39:30.411Z,35.00
2018-07-27T09:41:59.936Z,34.50
2018-07-27T09:44:30.185Z,34.90
2018-07-27T09:46:59.691Z,34.00
2018-07-27T09:49:29.169Z,34.70
2018-07-27T09:54:27.319Z,34.50
2018-07-27T09:56:56.491Z,35.50
2018-07-27T09:59:25.681Z,34.80
2018-07-27T10:01:55.068Z,35.50
2018-07-27T10:06:53.232Z,35.10
2018-07-27T10:09:22.429Z,34.40
2018-07-27T10:11:52.492Z,34.40
2018-07-27T10:14:21.923Z,34.60
2018-07-27T10:16:51.286Z,35.10
2018-07-27T10:19:20.694Z,35.10
2018-07-27T10:21:49.910Z,33.90
2018-07-27T10:24:19.123Z,34.20
2018-07-27T10:26:48.456Z,33.70
2018-07-27T10:29:17.678Z,34.60
2018-07-27T10:31:47.125Z,34.30
2018-07-27T10:34:16.528Z,33.60
2018-07-27T10:36:46.487Z,33.30
2018-07-27T10:39:15.731Z,34.60
2018-07-27T10:41:45.506Z,32.70
2018-07-27T10:44:15.019Z,32.70
2018-07-27T10:46:44.734Z,33.10
2018-07-27T10:49:21.294Z,33.50
2018-07-27T10:51:50.704Z,33.00
2018-07-27T10:54:20.268Z,32.40
2018-07-27T10:56:49.829Z,31.90
2018-07-27T10:59:19.253Z,32.60
2018-07-27T11:01:48.832Z,32.60
2018-07-27T11:04:18.425Z,32.60
2018-07-27T11:06:47.921Z,31.90
2018-07-27T11:09:17.224Z,31.50
2018-07-27T11:11:46.457Z,31.90
2018-07-27T11:14:15.955Z,32.70
2018-07-27T11:16:46.084Z,33.50
2018-07-27T11:19:15.567Z,34.20
2018-07-27T11:21:45.017Z,33.70
2018-07-27T11:24:14.296Z,33.30
2018-07-27T11:26:43.626Z,32.00
2018-07-27T11:29:12.913Z,31.70
2018-07-27T11:31:42.576Z,32.30
2018-07-27T11:34:12.025Z,32.30
2018-07-27T11:36:41.180Z,32.50
2018-07-27T11:39:11.828Z,33.00
2018-07-27T11:41:41.420Z,34.20
2018-07-27T11:44:10.748Z,33.50
2018-07-27T11:46:40.014Z,33.10
2018-07-27T11:49:09.426Z,34.90
2018-07-27T11:51:38.790Z,35.00
2018-07-27T11:54:08.112Z,34.30
2018-07-27T11:56:37.412Z,36.70
2018-07-27T11:59:06.717Z,34.10
2018-07-27T12:01:36.101Z,35.00
2018-07-27T12:04:05.361Z,35.20
2018-07-27T12:06:34.712Z,35.70
2018-07-27T12:09:05.972Z,36.70
2018-07-27T12:11:35.310Z,37.70
2018-07-27T12:14:04.690Z,39.00
2018-07-27T12:16:33.812Z,34.20
2018-07-27T12:19:03.369Z,34.80
2018-07-27T12:21:32.731Z,36.30
2018-07-27T12:24:02.055Z,34.90
2018-07-27T12:26:31.378Z,34.50
2018-07-27T12:29:00.813Z,35.40
2018-07-27T12:31:30.487Z,36.90
2018-07-27T12:34:00.009Z,35.10
2018-07-27T12:36:29.419Z,35.40
2018-07-27T12:38:58.842Z,35.00
2018-07-27T12:41:28.372Z,34.60
2018-07-27T12:43:57.954Z,35.70
2018-07-27T12:46:27.451Z,35.50
2018-07-27T12:48:56.658Z,34.90
2018-07-27T12:51:25.991Z,35.20
2018-07-27T12:53:55.379Z,35.60
2018-07-27T12:56:24.576Z,37.90
2018-07-27T12:58:54.085Z,34.60
2018-07-27T13:01:23.432Z,35.90
2018-07-27T13:03:52.763Z,34.00
2018-07-27T13:06:22.032Z,34.30
2018-07-27T13:08:51.735Z,33.60
2018-07-27T13:11:21.280Z,34.40
2018-07-27T13:13:50.883Z,34.70
2018-07-27T13:16:20.945Z,36.30
2018-07-27T13:18:50.604Z,36.40
2018-07-27T13:21:20.058Z,35.20
2018-07-27T13:23:57.487Z,35.80
2018-07-27T13:26:27.035Z,35.10
2018-07-27T13:28:56.428Z,35.20
2018-07-27T13:31:43.085Z,35.60
2018-07-27T13:34:51.245Z,35.00
2018-07-27T13:37:22.168Z,36.10
2018-07-27T13:39:52.794Z,34.90
2018-07-27T13:42:23.439Z,35.90
2018-07-27T13:44:52.719Z,36.20
2018-07-27T13:47:22.236Z,34.90
2018-07-27T13:49:51.811Z,34.90
2018-07-27T13:52:21.093Z,35.70
2018-07-27T13:54:50.300Z,35.10
2018-07-27T13:57:19.684Z,35.40
2018-07-27T13:59:49.024Z,35.10
2018-07-27T14:02:18.159Z,35.00
2018-07-27T14:04:47.960Z,36.00
2018-07-27T14:07:17.359Z,35.20
2018-07-27T14:09:46.688Z,35.80
2018-07-27T14:12:16.287Z,35.10
2018-07-27T14:14:45.689Z,35.70
2018-07-27T14:17:14.897Z,35.90
2018-07-27T14:19:44.249Z,36.20
2018-07-27T14:22:14.410Z,35.60
2018-07-27T14:24:43.739Z,36.00
2018-07-27T14:27:13.445Z,35.80
2018-07-27T14:29:42.922Z,35.50
2018-07-27T14:32:12.106Z,36.30
2018-07-27T14:34:41.463Z,36.10
2018-07-27T14:37:10.839Z,36.30
2018-07-27T14:39:40.362Z,36.50
2018-07-27T14:42:09.647Z,35.90
2018-07-27T14:44:39.148Z,36.10
2018-07-27T14:47:08.645Z,36.00
2018-07-27T14:49:38.198Z,37.00
2018-07-27T14:52:07.382Z,38.00
2018-07-27T14:54:37.276Z,36.80
2018-07-27T14:57:06.781Z,36.60
2018-07-27T14:59:36.240Z,36.90
2018-07-27T15:02:06.056Z,38.10
2018-07-27T15:04:35.376Z,37.70
2018-07-27T15:07:04.707Z,38.00
2018-07-27T15:09:34.128Z,36.80
2018-07-27T15:12:03.661Z,37.20
2018-07-27T15:14:32.888Z,37.60
2018-07-27T15:17:02.248Z,37.70
2018-07-27T15:19:31.716Z,37.90
2018-07-27T15:22:01.074Z,37.90
2018-07-27T15:24:30.662Z,37.60
2018-07-27T15:27:00.000Z,37.60
2018-07-27T15:29:29.467Z,38.20
2018-07-27T15:31:58.877Z,38.20
2018-07-27T15:34:28.380Z,38.90
2018-07-27T15:36:57.806Z,38.40
2018-07-27T15:39:27.461Z,37.90
2018-07-27T15:41:56.896Z,38.30
2018-07-27T15:44:26.424Z,38.60
2018-07-27T15:46:55.772Z,38.70
2018-07-27T15:49:25.362Z,38.60
2018-07-27T15:51:54.630Z,38.60
2018-07-27T15:54:23.895Z,38.60
2018-07-27T15:56:53.263Z,39.20
2018-07-27T15:59:22.864Z,39.00
2018-07-27T16:01:52.557Z,39.10
2018-07-27T16:04:22.128Z,39.40
2018-07-27T16:06:51.371Z,39.30
2018-07-27T16:09:20.843Z,40.20
2018-07-27T16:11:50.268Z,40.10
2018-07-27T16:14:19.559Z,39.10
2018-07-27T16:16:48.938Z,39.70
2018-07-27T16:24:16.723Z,39.40
2018-07-27T16:26:46.439Z,40.00
2018-07-27T16:29:16.080Z,39.30
2018-07-27T16:31:45.583Z,39.40
2018-07-27T16:34:15.019Z,39.30
2018-07-27T16:36:44.351Z,39.30
2018-07-27T16:41:42.687Z,39.80
2018-07-27T16:44:12.129Z,40.10
2018-07-27T16:46:41.731Z,39.60
2018-07-27T16:49:11.101Z,40.00
2018-07-27T16:51:40.504Z,39.50
2018-07-27T16:54:10.012Z,39.90
2018-07-27T16:56:39.644Z,40.10
2018-07-27T16:59:09.081Z,39.50
2018-07-27T17:01:38.655Z,40.20
2018-07-27T17:04:07.981Z,39.60
2018-07-27T17:06:37.372Z,40.10
2018-07-27T17:09:08.988Z,39.60
2018-07-27T17:11:38.337Z,40.50
2018-07-27T17:14:07.607Z,39.80
2018-07-27T17:16:37.021Z,40.10
2018-07-27T17:19:06.345Z,40.50
2018-07-27T17:21:36.124Z,40.80
2018-07-27T17:24:05.456Z,41.10
2018-07-27T17:26:34.804Z,40.40
2018-07-27T17:29:04.053Z,40.80
2018-07-27T17:31:33.348Z,41.50
2018-07-27T17:36:31.724Z,41.60
2018-07-27T17:39:00.992Z,41.50
2018-07-27T17:41:30.218Z,41.90
2018-07-27T17:43:59.590Z,42.00
2018-07-27T17:46:29.230Z,42.10
2018-07-27T17:48:58.606Z,42.20
2018-07-27T17:51:28.099Z,42.70
2018-07-27T17:53:57.513Z,42.70
2018-07-27T17:56:27.152Z,42.60
2018-07-27T17:58:56.444Z,42.60
2018-07-27T18:01:25.680Z,43.30
2018-07-27T18:03:54.995Z,42.90
2018-07-27T18:06:24.308Z,43.20
2018-07-27T18:08:53.758Z,43.20
2018-07-27T18:11:23.073Z,43.70
2018-07-27T18:13:52.327Z,43.70
2018-07-27T18:16:21.708Z,43.90
2018-07-27T18:18:50.883Z,44.00
2018-07-27T18:21:20.253Z,44.40
2018-07-27T18:23:49.827Z,44.50
2018-07-27T18:26:19.494Z,44.60
2018-07-27T18:28:49.264Z,44.80
2018-07-27T18:31:18.795Z,45.20
2018-07-27T18:33:48.197Z,45.20
2018-07-27T18:38:46.940Z,45.50
2018-07-27T18:41:17.873Z,45.80
2018-07-27T18:43:47.335Z,46.10
2018-07-27T18:46:17.207Z,46.30
2018-07-27T18:48:46.743Z,47.00
2018-07-27T18:51:16.113Z,46.50
2018-07-27T18:53:45.588Z,46.90
2018-07-27T18:58:44.627Z,47.00
2018-07-27T19:01:14.049Z,47.10
2018-07-27T19:03:43.576Z,47.40
2018-07-27T19:06:13.288Z,47.40
2018-07-27T19:11:11.818Z,48.30
2018-07-27T19:13:41.452Z,48.10
2018-07-27T19:16:11.554Z,48.40
2018-07-27T19:18:41.300Z,48.70
2018-07-27T19:21:10.748Z,48.90
2018-07-27T19:23:40.191Z,49.40
2018-07-27T19:26:09.525Z,49.60
2018-07-27T19:28:38.801Z,49.70
2018-07-27T19:31:08.970Z,50.60
2018-07-27T19:33:38.154Z,49.80
2018-07-27T19:38:36.352Z,50.70
2018-07-27T19:41:06.030Z,50.40
2018-07-27T19:43:35.284Z,50.50
2018-07-27T19:46:04.664Z,51.00
2018-07-27T19:48:34.095Z,51.30
2018-07-27T19:51:03.672Z,51.40
2018-07-27T19:56:02.274Z,51.40
2018-07-27T19:58:31.860Z,51.70
2018-07-27T20:03:30.010Z,51.40
2018-07-27T20:05:59.424Z,51.30
2018-07-27T20:08:28.963Z,50.90
2018-07-27T20:10:58.280Z,51.00
2018-07-27T20:13:27.784Z,50.90
2018-07-27T20:15:57.482Z,50.70
2018-07-27T20:18:27.173Z,50.70
2018-07-27T20:20:56.654Z,50.80
2018-07-27T20:23:26.708Z,51.70
2018-07-27T20:25:56.034Z,50.80
2018-07-27T20:28:26.233Z,51.10
2018-07-27T20:30:55.498Z,51.80
2018-07-27T20:33:25.441Z,52.40
2018-07-27T20:35:54.844Z,52.30
2018-07-27T20:38:24.682Z,51.90
2018-07-27T20:40:54.041Z,51.70
2018-07-27T20:43:23.505Z,51.80
2018-07-27T20:45:52.881Z,51.30
2018-07-27T20:48:22.452Z,51.60
2018-07-27T20:50:52.133Z,52.00
2018-07-27T20:53:21.682Z,50.90
2018-07-27T20:58:20.010Z,51.50
2018-07-27T21:00:49.476Z,51.50
2018-07-27T21:03:19.014Z,51.60
2018-07-27T21:05:48.733Z,51.90
2018-07-27T21:08:17.953Z,51.60
2018-07-27T21:10:47.646Z,51.50
2018-07-27T21:13:17.221Z,51.50
2018-07-27T21:15:46.563Z,51.40
2018-07-27T21:18:16.154Z,51.40
2018-07-27T21:20:45.412Z,51.30
2018-07-27T21:23:14.896Z,51.60
2018-07-27T21:25:44.209Z,52.00
2018-07-27T21:28:14.160Z,51.60
2018-07-27T21:30:44.893Z,52.00
2018-07-27T21:33:14.453Z,52.50
2018-07-27T21:35:43.997Z,52.20
2018-07-27T21:38:13.400Z,52.80
2018-07-27T21:40:42.747Z,52.90
2018-07-27T21:43:12.155Z,52.90
2018-07-27T21:45:41.741Z,53.60
2018-07-27T21:48:11.071Z,52.70
2018-07-27T21:50:40.344Z,53.80
2018-07-27T21:53:09.797Z,53.60
2018-07-27T21:58:07.902Z,53.60
2018-07-27T22:00:37.272Z,53.80
2018-07-27T22:03:06.624Z,54.50
2018-07-27T22:05:35.952Z,54.30
2018-07-27T22:08:05.401Z,54.30
2018-07-27T22:10:35.112Z,54.50
2018-07-27T22:13:04.555Z,54.80
2018-07-27T22:15:34.165Z,55.30
2018-07-27T22:18:03.755Z,55.80
2018-07-27T22:20:33.546Z,55.90
2018-07-27T22:25:32.136Z,56.50
2018-07-27T22:28:01.667Z,56.40
2018-07-27T22:30:31.563Z,56.60
2018-07-27T22:33:00.900Z,56.80
2018-07-27T22:35:30.573Z,56.80
2018-07-27T22:38:00.320Z,57.50
2018-07-27T22:40:30.017Z,57.10
2018-07-27T22:42:59.379Z,57.10
2018-07-27T22:45:28.831Z,57.20
2018-07-27T22:47:58.178Z,57.40
2018-07-27T22:50:27.509Z,57.30
2018-07-27T22:52:56.801Z,57.60
2018-07-27T22:55:26.090Z,57.80
2018-07-27T22:57:55.377Z,57.70
2018-07-27T23:00:24.684Z,57.80
2018-07-27T23:02:53.955Z,58.00
2018-07-27T23:05:23.408Z,57.90
2018-07-27T23:07:52.669Z,58.30
2018-07-27T23:10:22.068Z,58.40
2018-07-27T23:12:51.291Z,58.50
2018-07-27T23:15:20.511Z,58.60
2018-07-27T23:17:49.798Z,58.70
2018-07-27T23:20:19.080Z,59.00
2018-07-27T23:22:48.306Z,59.00
2018-07-27T23:25:17.586Z,59.20
2018-07-27T23:27:46.823Z,59.30
2018-07-27T23:30:16.076Z,59.40
2018-07-27T23:32:45.316Z,59.40
2018-07-27T23:35:14.575Z,59.50
2018-07-27T23:37:43.780Z,59.70
2018-07-27T23:40:13.113Z,59.90
2018-07-27T23:42:42.676Z,60.00
2018-07-27T23:45:11.835Z,60.10
2018-07-27T23:47:41.235Z,60.20
2018-07-27T23:50:10.464Z,60.70
2018-07-27T23:52:39.736Z,60.90
2018-07-27T23:55:09.226Z,61.40
2018-07-27T23:57:38.459Z,61.80
